Time;durP1;ratioP1;P1;durP2;ratioP2;P2;SDS_P1;SDS_P2;PMS_P1;PMS_P2;Temp;Humidity;BMP_temperature;BMP_pressure;BME280_temperature;BME280_humidity;BME280_pressure;Samples;Min_cycle;Max_cycle;Signal;HPM_P1;HPM_P2
2022/04/03 00:00:33;;;;;;;5.83;4.40;;;-1.30;99.90;;;;;;5076643;28;20064;-71
2022/04/03 00:03:00;;;;;;;7.20;4.63;;;-1.30;99.90;;;;;;5084223;28;20130;-69
2022/04/03 00:05:27;;;;;;;6.37;4.00;;;-1.30;99.90;;;;;;5068386;28;20710;-70
2022/04/03 00:07:54;;;;;;;5.57;4.20;;;-1.20;99.90;;;;;;5084934;28;20113;-70
2022/04/03 00:10:21;;;;;;;5.47;4.13;;;-1.20;99.90;;;;;;5068148;28;20040;-70
2022/04/03 00:12:47;;;;;;;6.87;4.27;;;-1.20;99.90;;;;;;5065569;28;20406;-70
2022/04/03 00:15:14;;;;;;;6.43;4.87;;;-1.20;99.90;;;;;;5068404;28;20102;-70
2022/04/03 00:17:41;;;;;;;6.60;4.40;;;-1.10;99.90;;;;;;5080038;28;20243;-71
2022/04/03 00:20:08;;;;;;;6.37;5.00;;;-1.10;99.90;;;;;;5066724;28;20043;-71
2022/04/03 00:22:34;;;;;;;7.77;4.73;;;-1.10;99.90;;;;;;5085189;28;20127;-71
2022/04/03 00:25:00;;;;;;;7.70;5.27;;;-1.10;99.90;;;;;;5083851;28;20162;-71
2022/04/03 00:27:26;;;;;;;6.73;5.53;;;-1.20;99.90;;;;;;5050365;28;20050;-71
2022/04/03 00:29:52;;;;;;;8.03;5.10;;;-1.20;99.90;;;;;;5067195;28;20741;-71
2022/04/03 00:32:18;;;;;;;7.80;4.50;;;-1.20;99.90;;;;;;5085076;28;20040;-71
2022/04/03 00:34:44;;;;;;;6.67;4.63;;;-1.20;99.90;;;;;;5083370;28;20054;-72
2022/04/03 00:37:10;;;;;;;6.50;4.20;;;-1.20;99.90;;;;;;5065284;28;20036;-72
2022/04/03 00:39:36;;;;;;;7.63;4.87;;;-1.20;99.90;;;;;;5083492;28;20044;-72
2022/04/03 00:42:04;;;;;;;7.47;4.70;;;-1.20;99.90;;;;;;5083527;28;20044;-71
2022/04/03 00:44:30;;;;;;;7.60;5.10;;;-1.20;99.90;;;;;;5084185;28;20056;-72
2022/04/03 00:46:57;;;;;;;6.77;5.40;;;-1.30;99.90;;;;;;5066135;28;20059;-72
2022/04/03 00:49:23;;;;;;;7.17;4.73;;;-1.30;99.90;;;;;;5083337;28;20055;-72
2022/04/03 00:51:49;;;;;;;8.17;5.77;;;-1.30;99.90;;;;;;5082748;28;20048;-71
2022/04/03 00:54:14;;;;;;;7.27;4.93;;;-1.30;99.90;;;;;;5067097;28;20044;-71
2022/04/03 00:56:40;;;;;;;8.20;5.63;;;-1.30;99.90;;;;;;5065396;28;20059;-71
2022/04/03 00:59:06;;;;;;;9.57;7.07;;;-1.30;99.90;;;;;;5064563;28;20051;-72
2022/04/03 01:01:32;;;;;;;9.03;6.97;;;-1.30;99.90;;;;;;5081318;28;20040;-72
2022/04/03 01:03:59;;;;;;;6.80;6.10;;;-1.30;99.90;;;;;;5081474;28;20043;-71
2022/04/03 01:06:25;;;;;;;8.60;6.37;;;-1.30;99.90;;;;;;5083744;28;20090;-72
2022/04/03 01:08:51;;;;;;;7.93;5.93;;;-1.30;99.90;;;;;;5084220;28;20509;-72
2022/04/03 01:11:21;;;;;;;7.83;6.30;;;-1.40;99.90;;;;;;5051482;28;20051;-72
2022/04/03 01:13:49;;;;;;;8.45;6.40;;;-1.40;99.90;;;;;;5083622;28;20048;-72
2022/04/03 01:16:15;;;;;;;10.77;6.93;;;-1.30;99.90;;;;;;5083337;28;20744;-72
2022/04/03 01:18:41;;;;;;;7.80;6.13;;;-1.40;99.90;;;;;;5082600;28;20051;-72
2022/04/03 01:21:07;;;;;;;7.80;6.23;;;-1.40;99.90;;;;;;5065989;28;20159;-72
2022/04/03 01:23:33;;;;;;;8.20;6.20;;;-1.40;99.90;;;;;;5081429;28;20048;-71
2022/04/03 01:25:59;;;;;;;8.20;6.13;;;-1.40;99.90;;;;;;5065321;28;20708;-71
2022/04/03 01:28:25;;;;;;;7.93;6.40;;;-1.30;99.90;;;;;;5065510;28;20040;-71
2022/04/03 01:30:51;;;;;;;8.60;6.70;;;-1.40;99.90;;;;;;5081273;28;20152;-71
2022/04/03 01:33:17;;;;;;;6.40;5.80;;;-1.30;99.90;;;;;;5065303;28;20094;-71
2022/04/03 01:35:44;;;;;;;7.70;6.20;;;-1.40;99.90;;;;;;5081463;28;20105;-71
2022/04/03 01:38:10;;;;;;;9.13;6.43;;;-1.40;99.90;;;;;;5065281;28;20383;-70
2022/04/03 01:40:36;;;;;;;8.67;6.60;;;-1.40;99.90;;;;;;5064549;28;20047;-71
2022/04/03 01:43:03;;;;;;;8.13;6.83;;;-1.40;99.90;;;;;;5064591;28;20119;-71
2022/04/03 01:45:29;;;;;;;9.63;7.50;;;-1.40;99.90;;;;;;5078340;28;20063;-72
2022/04/03 01:47:59;;;;;;;9.20;6.17;;;-1.50;99.90;;;;;;5080601;28;20040;-71
2022/04/03 01:50:26;;;;;;;7.03;5.70;;;-1.40;99.90;;;;;;5064399;28;20131;-72
2022/04/03 01:52:53;;;;;;;8.90;6.47;;;-1.50;99.90;;;;;;5081118;28;20297;-72
2022/04/03 01:55:20;;;;;;;9.87;6.87;;;-1.40;99.90;;;;;;5069853;28;20051;-72
2022/04/03 01:57:46;;;;;;;8.93;7.10;;;-1.40;99.90;;;;;;5079805;28;20040;-73
2022/04/03 02:00:12;;;;;;;10.43;6.67;;;-1.40;99.90;;;;;;5046910;28;20085;-72
2022/04/03 02:02:39;;;;;;;9.43;6.47;;;-1.40;99.90;;;;;;5071994;28;20052;-72
2022/04/03 02:05:06;;;;;;;9.13;6.10;;;-1.40;99.90;;;;;;5061073;28;20416;-72
2022/04/03 02:07:33;;;;;;;8.23;5.93;;;-1.30;99.90;;;;;;5082416;28;20079;-71
2022/04/03 02:10:09;;;;;;;7.87;5.97;;;-1.20;99.90;;;;;;5066080;28;20044;-72
2022/04/03 02:12:39;;;;;;;7.00;5.70;;;-1.20;99.90;;;;;;5049318;28;20060;-72
2022/04/03 02:15:06;;;;;;;8.43;5.60;;;-1.20;99.90;;;;;;5080896;28;20055;-72
2022/04/03 02:17:32;;;;;;;8.00;5.60;;;-1.10;99.90;;;;;;5075425;28;20382;-72
2022/04/03 02:19:58;;;;;;;8.20;6.20;;;-1.10;99.90;;;;;;5082598;28;20048;-72
2022/04/03 02:22:24;;;;;;;9.33;5.80;;;-1.10;99.90;;;;;;5083235;28;20044;-72
2022/04/03 02:24:50;;;;;;;8.90;6.43;;;-1.10;99.90;;;;;;5048601;28;20055;-72
2022/04/03 02:27:15;;;;;;;9.03;6.63;;;-1.10;99.90;;;;;;5080842;28;20089;-71
2022/04/03 02:29:41;;;;;;;8.30;6.23;;;-1.20;99.90;;;;;;5060611;28;20060;-72
2022/04/03 02:32:07;;;;;;;8.60;6.67;;;-1.20;99.90;;;;;;5081413;28;20075;-72
2022/04/03 02:34:34;;;;;;;10.50;6.93;;;-1.20;99.90;;;;;;5079305;28;20448;-72
2022/04/03 02:37:00;;;;;;;9.10;6.87;;;-1.20;99.90;;;;;;5059499;28;20465;-71
2022/04/03 02:39:26;;;;;;;8.73;6.83;;;-1.30;99.90;;;;;;5081087;28;20048;-72
2022/04/03 02:41:52;;;;;;;9.33;6.47;;;-1.30;99.90;;;;;;5079989;28;20055;-71
2022/04/03 02:44:18;;;;;;;9.77;7.17;;;-1.30;99.90;;;;;;5082986;28;20029;-71
2022/04/03 02:46:44;;;;;;;9.80;6.73;;;-1.30;99.90;;;;;;5065757;28;20059;-72
2022/04/03 02:49:10;;;;;;;10.80;6.97;;;-1.40;99.90;;;;;;5066960;28;20510;-72
2022/04/03 02:51:37;;;;;;;9.37;6.80;;;-1.40;99.90;;;;;;5069945;28;20464;-72
2022/04/03 02:54:03;;;;;;;9.90;7.03;;;-1.50;99.90;;;;;;5076176;28;20047;-72
2022/04/03 02:56:29;;;;;;;10.53;7.10;;;-1.50;99.90;;;;;;5081876;28;20043;-72
2022/04/03 02:58:55;;;;;;;7.87;6.47;;;-1.60;99.90;;;;;;5065457;28;20070;-71
2022/04/03 03:01:22;;;;;;;8.73;5.93;;;-1.60;99.90;;;;;;5065344;28;20379;-72
2022/04/03 03:03:48;;;;;;;8.63;6.37;;;-1.70;99.90;;;;;;5063657;28;20080;-73
2022/04/03 03:06:14;;;;;;;7.87;7.00;;;-1.70;99.90;;;;;;5082095;28;20079;-72
2022/04/03 03:08:41;;;;;;;9.90;6.80;;;-1.70;99.90;;;;;;5082633;28;20056;-72
2022/04/03 03:11:07;;;;;;;8.97;6.73;;;-1.70;99.90;;;;;;5081516;28;20097;-72
2022/04/03 03:13:34;;;;;;;8.67;7.37;;;-1.70;99.90;;;;;;5082217;28;20044;-71
2022/04/03 03:15:59;;;;;;;10.00;6.47;;;-1.60;99.90;;;;;;5065259;28;20055;-71
2022/04/03 03:18:28;;;;;;;9.53;6.77;;;-1.60;99.90;;;;;;5082971;28;20117;-71
2022/04/03 03:20:54;;;;;;;8.57;6.70;;;-1.60;99.90;;;;;;5065561;28;20055;-72
2022/04/03 03:23:20;;;;;;;9.93;7.40;;;-1.50;99.90;;;;;;5068293;28;20458;-71
2022/04/03 03:25:45;;;;;;;7.17;5.77;;;-1.50;99.90;;;;;;5050924;28;20322;-72
2022/04/03 03:28:12;;;;;;;9.10;8.00;;;-1.50;99.90;;;;;;5069047;28;20690;-71
2022/04/03 03:30:38;;;;;;;8.67;6.97;;;-1.40;99.90;;;;;;5084370;28;20044;-72
2022/04/03 03:33:05;;;;;;;8.77;7.87;;;-1.30;99.90;;;;;;5087348;28;20338;-72
2022/04/03 03:35:31;;;;;;;10.17;7.63;;;-1.30;99.90;;;;;;5089212;28;20497;-72
2022/04/03 03:37:57;;;;;;;8.10;7.30;;;-1.20;99.90;;;;;;5089564;28;20498;-71
2022/04/03 03:40:23;;;;;;;9.10;7.30;;;-1.20;99.90;;;;;;5090035;28;20139;-71
2022/04/03 03:42:49;;;;;;;9.23;6.93;;;-1.10;99.90;;;;;;5088895;28;20352;-72
2022/04/03 03:45:16;;;;;;;9.07;6.53;;;-1.10;99.90;;;;;;5072650;28;20036;-71
2022/04/03 03:47:46;;;;;;;10.47;7.80;;;-1.00;99.90;;;;;;5072141;28;20043;-72
2022/04/03 03:50:13;;;;;;;9.25;6.82;;;-1.00;99.90;;;;;;5072505;28;20097;-68
2022/04/03 03:52:39;;;;;;;7.73;6.70;;;-0.90;99.90;;;;;;5071203;28;20052;-69
2022/04/03 03:55:06;;;;;;;8.80;6.50;;;-0.90;99.90;;;;;;5071735;28;20055;-69
2022/04/03 03:57:33;;;;;;;8.53;6.77;;;-0.80;99.90;;;;;;5069226;28;20089;-69
2022/04/03 03:59:59;;;;;;;8.57;5.83;;;-0.80;99.90;;;;;;5053080;28;20489;-69
2022/04/03 04:02:25;;;;;;;8.60;6.23;;;-0.70;99.90;;;;;;5084172;28;20092;-69
2022/04/03 04:04:54;;;;;;;8.17;6.73;;;-0.60;99.90;;;;;;5056432;28;20047;-69
2022/04/03 04:07:20;;;;;;;7.20;5.43;;;-0.60;99.90;;;;;;5072188;28;20077;-70
2022/04/03 04:09:45;;;;;;;7.23;6.00;;;-0.50;99.90;;;;;;5088331;28;20412;-70
2022/04/03 04:12:11;;;;;;;8.63;6.13;;;-0.50;99.90;;;;;;5072890;28;20096;-68
2022/04/03 04:14:40;;;;;;;9.10;6.63;;;-0.40;99.90;;;;;;5056247;28;20563;-70
2022/04/03 04:17:08;;;;;;;9.27;6.60;;;-0.40;99.90;;;;;;5073313;28;20043;-70
2022/04/03 04:19:35;;;;;;;7.90;6.43;;;-0.30;99.90;;;;;;5088235;28;20078;-69
2022/04/03 04:22:01;;;;;;;8.57;6.30;;;-0.20;99.90;;;;;;5070063;28;20093;-70
2022/04/03 04:24:27;;;;;;;7.27;6.30;;;-0.20;99.90;;;;;;5087775;28;20047;-70
2022/04/03 04:26:53;;;;;;;8.93;6.60;;;-0.10;99.90;;;;;;5071288;28;20039;-70
2022/04/03 04:29:19;;;;;;;8.40;6.53;;;-0.10;99.90;;;;;;5070796;28;20055;-70
2022/04/03 04:31:44;;;;;;;8.33;6.60;;;-0.10;99.90;;;;;;5071383;28;20463;-69
2022/04/03 04:34:11;;;;;;;8.43;7.10;;;-0.10;99.90;;;;;;5083585;28;20059;-70
2022/04/03 04:36:36;;;;;;;8.90;6.73;;;-0.10;99.90;;;;;;5067975;28;20052;-69
2022/04/03 04:39:02;;;;;;;7.87;6.40;;;-0.10;99.90;;;;;;5051390;28;20379;-69
2022/04/03 04:41:28;;;;;;;8.20;6.47;;;-0.10;99.90;;;;;;5067989;28;20051;-69
2022/04/03 04:43:54;;;;;;;10.63;6.97;;;-0.20;99.90;;;;;;5067607;28;20135;-69
2022/04/03 04:46:20;;;;;;;9.23;6.20;;;-0.20;99.90;;;;;;5084806;28;20051;-70
2022/04/03 04:48:47;;;;;;;7.87;6.03;;;-0.20;99.90;;;;;;5051120;28;20048;-69
2022/04/03 04:51:13;;;;;;;8.33;6.60;;;-0.20;99.90;;;;;;5067758;28;20055;-69
2022/04/03 04:53:38;;;;;;;9.20;6.57;;;-0.30;99.90;;;;;;5066627;28;20433;-69
2022/04/03 04:56:04;;;;;;;9.03;6.60;;;-0.20;99.90;;;;;;5067527;28;20060;-69
2022/04/03 04:58:30;;;;;;;7.77;6.37;;;-0.30;99.90;;;;;;5068268;28;20048;-69
2022/04/03 05:00:56;;;;;;;8.53;6.27;;;-0.30;99.90;;;;;;5064335;28;20044;-71
2022/04/03 05:03:22;;;;;;;8.47;6.20;;;-0.30;99.90;;;;;;5082561;28;20055;-69
2022/04/03 05:05:48;;;;;;;7.17;6.17;;;-0.30;99.90;;;;;;5065920;28;20043;-69
2022/04/03 05:08:14;;;;;;;8.30;6.80;;;-0.40;99.90;;;;;;5066892;28;20559;-69
2022/04/03 05:10:40;;;;;;;9.60;7.50;;;-0.40;99.90;;;;;;5051016;28;20147;-70
2022/04/03 05:13:10;;;;;;;12.10;7.40;;;-0.60;99.90;;;;;;5050481;28;20134;-69
2022/04/03 05:15:36;;;;;;;9.03;7.70;;;-0.60;99.90;;;;;;5084232;28;20729;-69
2022/04/03 05:18:02;;;;;;;10.23;8.83;;;-0.60;99.90;;;;;;5083357;28;20585;-69
2022/04/03 05:20:28;;;;;;;11.60;9.03;;;-0.60;99.90;;;;;;5084151;28;20048;-69
2022/04/03 05:22:54;;;;;;;11.47;8.20;;;-0.60;99.90;;;;;;5067142;28;20059;-69
2022/04/03 05:25:20;;;;;;;9.70;8.73;;;-0.70;99.90;;;;;;5084220;28;20060;-69
2022/04/03 05:27:46;;;;;;;9.47;8.47;;;-0.70;99.90;;;;;;5066997;28;20040;-69
2022/04/03 05:30:14;;;;;;;9.77;8.33;;;-0.70;99.90;;;;;;5065772;28;20051;-69
2022/04/03 05:32:40;;;;;;;10.40;8.90;;;-0.70;99.90;;;;;;5067277;28;20521;-69
2022/04/03 05:35:08;;;;;;;9.03;8.13;;;-0.70;99.90;;;;;;5082918;28;20051;-69
2022/04/03 05:37:34;;;;;;;11.73;8.40;;;-0.80;99.90;;;;;;5034263;28;20052;-69
2022/04/03 05:39:59;;;;;;;10.57;8.87;;;-0.80;99.90;;;;;;5082880;28;20090;-69
2022/04/03 05:42:26;;;;;;;9.67;8.57;;;-0.80;99.90;;;;;;5068117;28;20043;-68
2022/04/03 05:44:52;;;;;;;9.70;8.80;;;-0.90;99.90;;;;;;5067406;28;20044;-69
2022/04/03 05:47:18;;;;;;;9.47;6.80;;;-0.90;99.90;;;;;;5066690;28;20040;-68
2022/04/03 05:49:45;;;;;;;13.87;9.40;;;-0.90;99.90;;;;;;5083074;28;20048;-68
2022/04/03 05:52:11;;;;;;;9.57;8.33;;;-0.90;99.90;;;;;;5081817;28;20064;-68
2022/04/03 05:54:37;;;;;;;10.13;9.13;;;-0.80;99.90;;;;;;5066624;28;20521;-68
2022/04/03 05:57:03;;;;;;;9.70;8.70;;;-0.90;99.90;;;;;;5083221;28;20130;-70
2022/04/03 05:59:29;;;;;;;10.77;8.80;;;-0.90;99.90;;;;;;5082192;28;20083;-70
2022/04/03 06:01:55;;;;;;;10.57;9.30;;;-0.90;99.90;;;;;;5064641;28;20073;-70
2022/04/03 06:04:21;;;;;;;10.80;8.53;;;-0.90;99.90;;;;;;5050038;28;20036;-70
2022/04/03 06:06:46;;;;;;;10.93;8.27;;;-0.80;99.90;;;;;;5066097;28;20048;-72
2022/04/03 06:09:12;;;;;;;9.87;8.03;;;-0.80;99.90;;;;;;5066728;28;20130;-72
2022/04/03 06:11:38;;;;;;;10.40;8.33;;;-0.80;99.90;;;;;;5032771;28;20044;-72
2022/04/03 06:14:04;;;;;;;11.83;8.90;;;-0.70;99.90;;;;;;5062633;28;20051;-71
2022/04/03 06:16:30;;;;;;;10.93;8.80;;;-0.60;99.90;;;;;;5080688;28;20869;-72
2022/04/03 06:18:58;;;;;;;9.57;8.53;;;-0.50;99.90;;;;;;5082992;28;20056;-72
2022/04/03 06:21:24;;;;;;;9.13;8.10;;;-0.40;99.90;;;;;;5065826;28;20059;-72
2022/04/03 06:23:50;;;;;;;10.30;7.97;;;-0.20;99.90;;;;;;5082928;28;20056;-72
2022/04/03 06:26:15;;;;;;;11.43;9.27;;;-0.10;99.90;;;;;;5065853;28;20435;-72
2022/04/03 06:28:42;;;;;;;9.53;8.13;;;0.00;99.90;;;;;;5066100;28;20087;-69
2022/04/03 06:31:08;;;;;;;9.10;8.17;;;0.00;99.90;;;;;;5080725;28;20067;-71
2022/04/03 06:33:34;;;;;;;9.47;7.77;;;0.10;99.90;;;;;;5066166;28;20044;-70
2022/04/03 06:36:01;;;;;;;8.93;8.13;;;0.10;99.90;;;;;;5065548;28;20486;-69
2022/04/03 06:38:26;;;;;;;9.57;7.70;;;0.20;99.90;;;;;;5049649;28;20090;-72
2022/04/03 06:40:58;;;;;;;10.17;7.37;;;0.20;99.90;;;;;;5082219;28;20113;-71
2022/04/03 06:43:29;;;;;;;8.60;7.10;;;0.30;99.90;;;;;;5082206;28;20090;-72
2022/04/03 06:45:56;;;;;;;9.90;6.63;;;0.30;99.90;;;;;;5081714;28;20051;-71
2022/04/03 06:48:22;;;;;;;9.47;7.00;;;0.40;99.90;;;;;;5096031;28;20033;-72
2022/04/03 06:50:48;;;;;;;8.97;5.73;;;0.50;99.90;;;;;;5095909;28;20145;-72
2022/04/03 06:53:14;;;;;;;7.70;5.50;;;0.60;99.90;;;;;;5074986;28;20040;-72
2022/04/03 06:55:40;;;;;;;7.23;4.97;;;0.80;99.90;;;;;;5062323;28;20045;-72
2022/04/03 06:58:07;;;;;;;8.13;4.90;;;0.90;99.90;;;;;;5064901;28;20698;-71
2022/04/03 07:00:37;;;;;;;9.17;5.27;;;1.10;99.90;;;;;;5061263;28;20589;-72
2022/04/03 07:03:04;;;;;;;8.68;4.30;;;1.30;99.90;;;;;;5085348;28;20078;-71
2022/04/03 07:05:29;;;;;;;7.90;4.13;;;1.60;99.90;;;;;;5070045;28;20161;-72
2022/04/03 07:07:56;;;;;;;7.00;3.40;;;1.90;99.90;;;;;;5069221;28;20036;-71
2022/04/03 07:10:21;;;;;;;7.37;3.47;;;2.10;99.90;;;;;;5053346;28;20109;-71
2022/04/03 07:12:48;;;;;;;5.93;3.23;;;2.40;99.90;;;;;;5052956;28;20581;-69
2022/04/03 07:15:13;;;;;;;5.90;3.20;;;2.60;99.90;;;;;;5070726;28;20060;-69
2022/04/03 07:17:41;;;;;;;5.87;3.30;;;2.80;99.90;;;;;;5070644;28;20047;-69
2022/04/03 07:20:08;;;;;;;7.63;3.63;;;2.90;99.90;;;;;;5103803;28;20044;-69
2022/04/03 07:22:34;;;;;;;4.87;2.73;;;3.20;99.90;;;;;;5069919;28;20048;-69
2022/04/03 07:25:00;;;;;;;6.73;3.10;;;3.30;99.90;;;;;;5068626;28;20074;-69
2022/04/03 07:27:27;;;;;;;5.57;3.03;;;3.50;99.90;;;;;;5085031;28;20044;-71
2022/04/03 07:29:53;;;;;;;6.30;2.83;;;3.70;99.90;;;;;;5085300;28;20056;-70
2022/04/03 07:32:18;;;;;;;8.90;3.03;;;3.80;99.90;;;;;;5067802;28;20136;-69
2022/04/03 07:34:45;;;;;;;6.47;3.23;;;4.00;99.90;;;;;;5036197;28;20127;-69
2022/04/03 07:37:11;;;;;;;9.67;2.90;;;4.10;99.90;;;;;;5085126;28;20159;-69
2022/04/03 07:39:37;;;;;;;6.23;2.30;;;4.30;99.90;;;;;;5085562;28;20052;-69
2022/04/03 07:42:03;;;;;;;4.53;1.90;;;4.50;99.90;;;;;;5051553;28;20395;-69
2022/04/03 07:44:29;;;;;;;4.20;2.20;;;4.60;99.90;;;;;;5084067;28;20067;-69
2022/04/03 07:46:55;;;;;;;5.47;1.93;;;4.80;99.90;;;;;;5085282;28;20075;-69
2022/04/03 07:49:21;;;;;;;5.57;1.97;;;4.90;99.90;;;;;;5068700;28;20048;-68
2022/04/03 07:51:47;;;;;;;5.80;2.50;;;5.10;99.90;;;;;;5068574;28;20075;-68
2022/04/03 07:54:14;;;;;;;6.80;2.17;;;5.20;99.90;;;;;;5068133;28;20082;-69
2022/04/03 07:56:40;;;;;;;4.90;2.10;;;5.30;99.90;;;;;;5052567;28;20530;-69
2022/04/03 07:59:06;;;;;;;6.60;2.27;;;5.40;99.90;;;;;;5068325;28;20055;-69
2022/04/03 08:01:33;;;;;;;5.57;2.00;;;5.50;99.90;;;;;;5063482;28;20093;-70
2022/04/03 08:03:59;;;;;;;6.05;2.15;;;5.70;99.90;;;;;;5050371;28;20067;-69
2022/04/03 08:06:25;;;;;;;7.03;1.93;;;5.90;99.90;;;;;;5085689;28;20295;-70
2022/04/03 08:08:51;;;;;;;4.43;1.87;;;6.00;99.90;;;;;;5079841;28;20048;-71
2022/04/03 08:11:17;;;;;;;5.35;1.88;;;6.10;99.90;;;;;;5068503;28;20794;-70
2022/04/03 08:13:43;;;;;;;5.53;1.65;;;6.20;99.90;;;;;;5051883;28;20047;-71
2022/04/03 08:16:09;;;;;;;5.95;1.70;;;6.30;99.90;;;;;;5067906;28;20106;-71
2022/04/03 08:18:35;;;;;;;5.35;1.70;;;6.50;99.90;;;;;;5067303;28;20506;-71
2022/04/03 08:21:01;;;;;;;5.25;1.63;;;6.60;99.90;;;;;;5083291;28;20056;-71
2022/04/03 08:23:27;;;;;;;6.15;1.80;;;6.80;99.90;;;;;;5083229;28;20036;-72
2022/04/03 08:25:53;;;;;;;7.13;2.13;;;6.90;99.90;;;;;;5065889;28;20044;-72
2022/04/03 08:28:19;;;;;;;5.65;1.90;;;6.80;99.90;;;;;;5064547;28;20105;-72
2022/04/03 08:30:45;;;;;;;7.40;2.00;;;6.70;99.90;;;;;;5048071;28;20428;-71
2022/04/03 08:33:11;;;;;;;4.45;1.92;;;6.50;99.90;;;;;;5084697;28;20486;-69
2022/04/03 08:35:40;;;;;;;4.38;1.67;;;6.30;99.90;;;;;;5068587;28;20051;-71
2022/04/03 08:38:08;;;;;;;7.68;1.92;;;6.40;99.90;;;;;;5069628;28;20047;-71
2022/04/03 08:40:35;;;;;;;4.43;1.92;;;6.40;99.90;;;;;;5084714;28;20043;-71
2022/04/03 08:43:02;;;;;;;6.28;1.70;;;6.40;99.90;;;;;;5086181;28;20044;-72
2022/04/03 08:45:28;;;;;;;5.10;1.83;;;6.40;99.90;;;;;;5085646;28;20130;-71
2022/04/03 08:48:01;;;;;;;5.10;1.50;;;6.50;99.90;;;;;;5069559;28;20085;-71
2022/04/03 08:50:31;;;;;;;3.90;1.40;;;6.50;99.90;;;;;;5086701;28;20039;-71
2022/04/03 08:53:02;;;;;;;3.75;1.48;;;6.60;99.90;;;;;;5083689;28;20044;-71
2022/04/03 08:55:30;;;;;;;4.22;1.50;;;6.80;99.90;;;;;;5065091;28;20422;-72
2022/04/03 08:57:56;;;;;;;6.05;1.30;;;7.00;99.90;;;;;;5084412;28;20048;-71
2022/04/03 09:00:22;;;;;;;4.65;1.52;;;7.30;99.90;;;;;;5082476;28;20408;-71
2022/04/03 09:02:50;;;;;;;6.30;1.40;;;7.50;99.90;;;;;;5065862;28;20211;-71
2022/04/03 09:05:17;;;;;;;5.78;1.45;;;7.60;99.90;;;;;;5081823;28;20449;-72
2022/04/03 09:07:43;;;;;;;3.25;1.23;;;7.50;99.90;;;;;;5065996;28;20035;-71
2022/04/03 09:10:13;;;;;;;4.78;1.35;;;7.50;99.90;;;;;;5085040;28;20076;-72
2022/04/03 09:12:47;;;;;;;5.55;1.30;;;7.40;99.90;;;;;;5067634;28;20039;-72
2022/04/03 09:15:16;;;;;;;5.38;1.40;;;7.40;99.90;;;;;;5068154;28;20140;-72
2022/04/03 09:17:44;;;;;;;6.43;1.75;;;7.30;99.90;;;;;;5082474;28;20079;-70
2022/04/03 09:20:33;;;;;;;3.58;1.10;;;7.20;99.90;;;;;;5117143;27;20062;-70
2022/04/03 09:23:01;;;;;;;6.60;1.20;;;7.20;99.90;;;;;;5083932;28;20043;-71
2022/04/03 09:25:30;;;;;;;3.70;1.30;;;7.10;99.90;;;;;;5068745;28;20371;-70
2022/04/03 09:28:04;;;;;;;5.60;1.27;;;7.00;99.90;;;;;;5085663;28;20078;-71
2022/04/03 09:30:36;;;;;;;2.40;1.05;;;7.00;99.90;;;;;;5084325;28;20422;-70
2022/04/03 09:33:04;;;;;;;3.47;1.02;;;7.20;99.90;;;;;;5083064;28;20058;-71
2022/04/03 09:35:32;;;;;;;3.47;0.80;;;7.50;99.90;;;;;;5094443;28;20126;-72
2022/04/03 09:38:07;;;;;;;2.88;0.90;;;7.60;99.90;;;;;;5071542;28;20039;-71
2022/04/03 09:40:35;;;;;;;4.32;1.15;;;7.70;99.90;;;;;;5086677;28;20063;-72
2022/04/03 09:43:46;;;;;;;3.08;1.00;;;7.60;99.90;;;;;;5112193;27;20641;-71
2022/04/03 09:46:13;;;;;;;3.80;1.02;;;7.40;99.90;;;;;;5076416;28;20131;-71
2022/04/03 09:48:42;;;;;;;3.15;1.20;;;7.20;99.90;;;;;;5056109;28;20085;-71
2022/04/03 09:51:08;;;;;;;3.80;1.08;;;7.00;99.90;;;;;;5075611;28;20437;-70
2022/04/03 09:54:14;;;;;;;3.45;1.40;;;6.70;99.90;;;;;;5059619;28;20513;-70
2022/04/03 09:56:39;;;;;;;5.40;1.60;;;6.50;99.90;;;;;;5097371;28;20137;-70
2022/04/03 09:59:08;;;;;;;5.35;1.48;;;6.20;99.90;;;;;;5059585;28;20149;-71
2022/04/03 10:01:38;;;;;;;6.32;2.60;;;6.00;99.90;;;;;;5058726;28;20093;-70
2022/04/03 10:04:08;;;;;;;3.53;1.58;;;6.00;99.90;;;;;;5107473;27;20406;-69
2022/04/03 10:06:35;;;;;;;5.23;1.97;;;5.80;99.90;;;;;;5077773;28;20469;-70
2022/04/03 10:09:02;;;;;;;3.17;1.50;;;5.80;99.90;;;;;;5058190;28;20055;-70
2022/04/03 10:11:29;;;;;;;5.88;2.63;;;5.80;99.90;;;;;;5076622;28;20055;-70
2022/04/03 10:13:55;;;;;;;3.40;1.35;;;5.90;99.90;;;;;;5061284;28;20069;-70
2022/04/03 10:16:31;;;;;;;5.28;1.90;;;6.00;99.90;;;;;;5080118;28;21321;-70
2022/04/03 10:18:57;;;;;;;4.53;2.33;;;6.00;99.90;;;;;;5075264;28;20126;-70
2022/04/03 10:21:36;;;;;;;3.88;1.80;;;6.10;99.90;;;;;;5063329;28;20047;-70
2022/04/03 10:24:16;;;;;;;4.30;1.85;;;6.20;99.90;;;;;;5060046;28;20055;-70
2022/04/03 10:26:44;;;;;;;3.70;1.60;;;6.30;99.90;;;;;;5077682;28;20039;-70
2022/04/03 10:29:11;;;;;;;2.20;1.10;;;6.40;99.90;;;;;;5078794;28;21051;-70
2022/04/03 10:31:58;;;;;;;1.73;0.60;;;6.50;99.90;;;;;;5075466;28;20047;-69
2022/04/03 10:34:27;;;;;;;3.33;1.20;;;6.80;99.90;;;;;;5073999;28;20052;-69
2022/04/03 10:36:53;;;;;;;3.38;0.85;;;7.20;99.90;;;;;;5062562;28;20048;-70
2022/04/03 10:39:37;;;;;;;4.07;1.05;;;7.50;99.90;;;;;;5080401;28;20046;-70
2022/04/03 10:42:20;;;;;;;2.95;1.17;;;7.80;99.90;;;;;;5057565;28;20061;-71
2022/04/03 10:45:12;;;;;;;2.53;0.90;;;8.00;99.90;;;;;;5068045;28;20040;-69
2022/04/03 10:47:39;;;;;;;3.25;1.10;;;8.00;99.90;;;;;;5074014;28;20442;-70
2022/04/03 10:50:06;;;;;;;3.20;1.10;;;7.90;99.90;;;;;;5056679;28;20139;-69
2022/04/03 10:52:38;;;;;;;2.60;1.27;;;7.80;99.90;;;;;;5074607;28;20040;-70
2022/04/03 10:55:27;;;;;;;2.67;1.30;;;7.80;99.90;;;;;;5071206;28;20444;-70
2022/04/03 10:58:06;;;;;;;1.93;0.80;;;7.80;99.90;;;;;;5071875;28;20048;-69
2022/04/03 11:00:35;;;;;;;1.63;0.75;;;7.80;99.90;;;;;;5095073;28;20693;-70
2022/04/03 11:03:21;;;;;;;4.65;0.98;;;7.80;98.60;;;;;;5076613;28;20052;-70
2022/04/03 11:05:47;;;;;;;5.10;1.27;;;7.80;99.90;;;;;;5074708;28;20047;-70
2022/04/03 11:08:18;;;;;;;2.90;1.05;;;7.80;99.90;;;;;;5075372;28;20048;-70
2022/04/03 11:10:54;;;;;;;3.47;0.90;;;7.80;99.90;;;;;;5060036;28;20044;-69
2022/04/03 11:13:35;;;;;;;2.53;1.00;;;7.70;99.90;;;;;;5075076;28;20067;-70
2022/04/03 11:16:01;;;;;;;;;;;7.70;99.90;;;;;;5073189;28;20110;-70
2022/04/03 11:18:41;;;;;;;3.03;0.90;;;7.60;99.90;;;;;;5055590;28;19924;-70
2022/04/03 11:21:26;;;;;;;2.25;0.75;;;7.60;99.90;;;;;;5070301;28;20052;-69
2022/04/03 11:24:06;;;;;;;2.45;1.20;;;7.60;98.60;;;;;;5093359;28;20087;-70
2022/04/03 11:26:35;;;;;;;3.78;1.30;;;7.50;99.90;;;;;;5074029;28;20048;-70
2022/04/03 11:29:02;;;;;;;3.75;1.35;;;7.50;99.90;;;;;;5058334;28;20075;-70
2022/04/03 11:31:29;;;;;;;3.53;1.38;;;7.50;99.90;;;;;;5074923;28;20048;-71
2022/04/03 11:33:57;;;;;;;4.40;1.88;;;7.50;99.90;;;;;;5070820;28;20056;-71
2022/04/03 11:36:32;;;;;;;3.05;1.23;;;7.40;99.90;;;;;;5058052;28;20055;-70
2022/04/03 11:39:00;;;;;;;3.60;1.20;;;7.40;99.90;;;;;;5057813;28;20051;-70
2022/04/03 11:41:34;;;;;;;3.38;1.05;;;7.40;99.90;;;;;;5052529;28;20036;-72
2022/04/03 11:44:17;;;;;;;3.55;1.38;;;7.30;99.90;;;;;;5070022;28;20056;-70
2022/04/03 11:46:46;;;;;;;4.35;1.17;;;7.30;99.90;;;;;;5083433;28;20105;-71
2022/04/03 11:49:16;;;;;;;2.35;1.08;;;7.30;99.90;;;;;;5079906;28;20047;-72
2022/04/03 11:51:43;;;;;;;3.58;1.13;;;7.20;99.90;;;;;;5085533;28;20044;-71
2022/04/03 11:54:09;;;;;;;2.95;1.00;;;7.30;99.90;;;;;;5067388;28;20052;-70
2022/04/03 11:56:36;;;;;;;3.22;1.00;;;7.20;99.90;;;;;;5069448;28;20040;-72
2022/04/03 11:59:04;;;;;;;1.67;0.60;;;7.10;99.90;;;;;;5086011;28;20162;-71
2022/04/03 12:01:35;;;;;;;3.53;0.80;;;7.00;99.90;;;;;;5071419;28;20121;-70
2022/04/03 12:04:02;;;;;;;1.88;0.95;;;6.90;99.90;;;;;;5082515;28;20247;-70
2022/04/03 12:06:33;;;;;;;2.58;1.27;;;6.90;99.90;;;;;;5066734;28;20044;-71
2022/04/03 12:08:59;;;;;;;2.10;1.30;;;6.80;99.90;;;;;;5084271;28;20056;-71
2022/04/03 12:11:27;;;;;;;2.60;1.02;;;6.80;99.90;;;;;;5079241;28;20386;-71
2022/04/03 12:13:58;;;;;;;2.22;1.00;;;6.80;99.90;;;;;;5080496;28;20090;-71
2022/04/03 12:16:26;;;;;;;3.03;1.20;;;6.80;99.90;;;;;;5068083;28;20079;-70
2022/04/03 12:18:59;;;;;;;3.10;1.33;;;6.80;99.90;;;;;;5084011;28;20052;-71
2022/04/03 12:21:51;;;;;;;1.60;0.70;;;6.90;99.90;;;;;;5083149;28;20043;-70
2022/04/03 12:24:23;;;;;;;1.20;0.50;;;7.00;99.90;;;;;;5066586;28;20433;-70
2022/04/03 12:26:49;;;;;;;2.60;1.83;;;7.10;99.90;;;;;;5067174;28;20055;-72
2022/04/03 12:29:16;;;;;;;2.22;0.68;;;7.20;99.90;;;;;;5083656;28;20048;-71
2022/04/03 12:31:42;;;;;;;3.25;0.93;;;7.30;99.90;;;;;;5084895;28;20086;-71
2022/04/03 12:34:12;;;;;;;2.45;0.70;;;7.40;99.90;;;;;;5058713;28;20523;-70
2022/04/03 12:36:45;;;;;;;2.38;0.60;;;7.40;99.90;;;;;;5096878;28;20650;-70
2022/04/03 12:39:35;;;;;;;1.13;0.50;;;7.30;99.80;;;;;;5097643;28;20055;-70
2022/04/03 12:42:18;;;;;;;3.28;0.77;;;7.30;99.90;;;;;;5110314;27;20135;-70
2022/04/03 12:45:12;;;;;;;3.00;0.70;;;7.30;99.90;;;;;;5079274;28;20054;-71
2022/04/03 12:48:02;;;;;;;1.20;0.63;;;7.30;99.90;;;;;;5096062;28;20444;-70
2022/04/03 12:50:31;;;;;;;2.70;0.90;;;7.40;99.90;;;;;;5078805;28;20655;-70
2022/04/03 12:53:02;;;;;;;1.92;0.80;;;7.50;99.90;;;;;;5059032;28;20147;-70
2022/04/03 12:55:41;;;;;;;2.10;0.70;;;7.80;99.90;;;;;;5057839;28;20041;-71